Time;durP1;ratioP1;P1;durP2;ratioP2;P2;SDS_P1;SDS_P2;PMS_P1;PMS_P2;Temp;Humidity;BMP_temperature;BMP_pressure;BME280_temperature;BME280_humidity;BME280_pressure;Samples;Min_cycle;Max_cycle;Signal;HPM_P1;HPM_P2
2022/11/04 00:02:24;;;;;;;4.77;2.00;;;4.70;99.90;;;;;;5105735;28;20566;-87
2022/11/04 00:04:55;;;;;;;2.87;2.23;;;4.50;99.90;;;;;;5104927;28;20202;-85
2022/11/04 00:10:16;;;;;;;3.17;2.50;;;4.50;99.90;;;;;;5108513;28;20228;-84
2022/11/04 00:12:45;;;;;;;3.10;2.47;;;4.60;99.90;;;;;;5113708;28;20684;-84
2022/11/04 00:18:04;;;;;;;3.63;2.57;;;4.60;99.90;;;;;;5095926;28;20601;-85
2022/11/04 00:29:04;;;;;;;3.13;2.53;;;4.60;99.90;;;;;;5066145;28;20289;-85
2022/11/04 00:34:23;;;;;;;3.73;3.23;;;4.60;99.90;;;;;;5113135;28;20230;-85
2022/11/04 00:36:55;;;;;;;3.07;2.57;;;4.70;99.90;;;;;;5106614;28;20263;-86
2022/11/04 00:39:26;;;;;;;2.97;2.67;;;4.70;99.90;;;;;;5093593;28;20234;-85
2022/11/04 00:42:00;;;;;;;3.07;2.77;;;4.70;99.90;;;;;;5111608;28;20229;-87
2022/11/04 00:44:31;;;;;;;2.50;2.30;;;4.70;99.90;;;;;;5099569;28;20221;-85
2022/11/04 00:47:03;;;;;;;3.93;2.87;;;4.70;99.90;;;;;;5094144;28;20203;-84
2022/11/04 00:49:34;;;;;;;4.87;2.53;;;4.70;99.90;;;;;;5098904;28;20238;-86
2022/11/04 00:52:06;;;;;;;2.97;2.67;;;4.70;99.90;;;;;;5099691;28;20240;-85
2022/11/04 00:54:38;;;;;;;3.10;2.60;;;4.70;99.90;;;;;;5104888;28;20240;-86
2022/11/04 00:57:13;;;;;;;3.17;2.67;;;4.70;99.90;;;;;;5106756;28;20289;-86
2022/11/04 00:59:45;;;;;;;2.70;2.20;;;4.70;99.90;;;;;;5112486;28;20345;-85
2022/11/04 01:02:17;;;;;;;4.30;2.97;;;4.80;99.90;;;;;;5108909;28;20241;-85
2022/11/04 01:04:49;;;;;;;2.73;1.97;;;4.80;99.90;;;;;;5112971;28;20285;-88
2022/11/04 01:07:21;;;;;;;2.20;2.00;;;4.60;99.90;;;;;;5108499;28;20296;-88
2022/11/04 01:09:51;;;;;;;2.53;2.33;;;4.60;99.90;;;;;;5099474;28;20221;-87
2022/11/04 01:12:24;;;;;;;2.53;2.30;;;4.60;99.90;;;;;;5111380;28;20297;-86
2022/11/04 01:14:54;;;;;;;2.67;2.00;;;4.70;99.90;;;;;;5110122;28;20202;-86
2022/11/04 01:17:26;;;;;;;2.53;2.17;;;4.60;99.90;;;;;;5107270;28;20201;-85
2022/11/04 01:19:57;;;;;;;3.07;2.70;;;4.70;99.90;;;;;;5103954;28;20233;-86
2022/11/04 01:22:28;;;;;;;2.87;2.17;;;4.60;99.90;;;;;;5095179;28;20237;-86
2022/11/04 01:24:59;;;;;;;2.83;2.50;;;4.70;99.90;;;;;;5104283;28;20210;-86
2022/11/04 01:27:32;;;;;;;3.77;2.73;;;4.70;99.90;;;;;;5092745;28;20198;-86
2022/11/04 01:30:04;;;;;;;2.50;2.23;;;4.70;99.90;;;;;;5103634;28;20663;-86
2022/11/04 01:32:35;;;;;;;3.63;3.03;;;4.70;99.90;;;;;;5119196;28;20233;-85
2022/11/04 01:35:08;;;;;;;3.73;3.17;;;4.80;99.90;;;;;;5097722;28;20290;-86
2022/11/04 01:37:39;;;;;;;5.17;3.60;;;4.80;99.90;;;;;;5098526;28;20666;-86
2022/11/04 01:40:12;;;;;;;3.97;3.33;;;4.80;99.90;;;;;;5096344;28;20675;-86
2022/11/04 01:42:45;;;;;;;3.73;3.40;;;4.90;99.90;;;;;;5111309;28;20603;-86
2022/11/04 01:45:20;;;;;;;3.57;3.13;;;4.90;99.90;;;;;;5098694;28;21165;-85
2022/11/04 01:47:58;;;;;;;4.83;3.27;;;4.90;99.90;;;;;;5105587;28;20277;-87
2022/11/04 01:50:33;;;;;;;5.17;3.20;;;5.00;99.90;;;;;;5111184;28;20233;-87
2022/11/04 01:53:07;;;;;;;3.77;3.13;;;5.00;99.90;;;;;;5115233;28;20574;-86
2022/11/04 01:55:46;;;;;;;6.50;3.60;;;5.00;99.90;;;;;;5085985;28;20210;-86
2022/11/04 01:58:22;;;;;;;4.97;3.40;;;5.00;99.90;;;;;;5107919;28;20297;-87
2022/11/04 02:00:54;;;;;;;5.20;3.50;;;5.00;99.90;;;;;;5097485;28;20769;-87
2022/11/04 02:03:30;;;;;;;4.27;2.80;;;5.00;99.90;;;;;;5099630;28;20230;-86
2022/11/04 02:06:03;;;;;;;4.83;3.37;;;5.00;99.90;;;;;;5107125;28;20289;-87
2022/11/04 02:08:36;;;;;;;3.40;2.87;;;5.00;99.90;;;;;;5096845;28;20289;-87
2022/11/04 02:11:08;;;;;;;4.80;3.60;;;5.00;99.90;;;;;;5113093;28;20284;-86
2022/11/04 02:13:40;;;;;;;4.17;2.80;;;5.00;99.90;;;;;;5101862;28;20571;-86
2022/11/04 02:16:21;;;;;;;4.23;3.30;;;5.10;99.90;;;;;;5107294;28;20678;-86
2022/11/04 02:19:01;;;;;;;4.23;2.97;;;5.10;99.90;;;;;;5108866;28;20246;-88
2022/11/04 02:21:51;;;;;;;3.30;2.90;;;5.10;99.90;;;;;;5104781;28;20308;-87
2022/11/04 02:25:06;;;;;;;4.50;3.20;;;5.10;99.90;;;;;;5086931;28;20209;-86
2022/11/04 02:27:54;;;;;;;4.20;3.03;;;5.30;99.90;;;;;;5095902;28;20255;-86
2022/11/04 02:30:33;;;;;;;3.00;2.67;;;5.20;99.90;;;;;;5101727;28;20296;-86
2022/11/04 02:33:22;;;;;;;3.23;2.67;;;5.10;99.90;;;;;;5109889;28;20688;-86
2022/11/04 02:36:02;;;;;;;4.03;3.60;;;5.20;99.90;;;;;;5110052;28;20225;-86
2022/11/04 02:38:46;;;;;;;3.07;2.60;;;5.20;99.90;;;;;;5101339;28;20223;-86
2022/11/04 02:41:30;;;;;;;3.70;3.00;;;5.30;99.90;;;;;;5112348;28;20244;-87
2022/11/04 02:44:10;;;;;;;3.40;3.10;;;5.30;99.90;;;;;;5096248;28;20207;-86
2022/11/04 02:46:50;;;;;;;3.93;2.90;;;5.30;99.90;;;;;;5095375;28;20199;-87
2022/11/04 02:49:28;;;;;;;3.00;2.70;;;5.30;99.90;;;;;;5096578;28;20211;-87
2022/11/04 02:52:03;;;;;;;3.90;2.93;;;5.30;99.90;;;;;;5106385;28;20202;-86
2022/11/04 02:54:39;;;;;;;6.23;3.23;;;5.40;99.90;;;;;;5112338;28;20236;-87
2022/11/04 02:57:14;;;;;;;3.13;2.70;;;5.40;99.90;;;;;;5110709;28;20223;-87
2022/11/04 02:59:49;;;;;;;3.87;2.47;;;5.40;99.90;;;;;;5116485;28;20281;-87
2022/11/04 03:02:28;;;;;;;2.77;2.50;;;5.40;99.90;;;;;;5114722;28;20236;-86
2022/11/04 03:05:01;;;;;;;3.93;2.80;;;5.30;99.90;;;;;;5095217;28;20305;-87
2022/11/04 03:07:37;;;;;;;3.67;3.00;;;5.30;99.90;;;;;;5081133;28;20632;-87
2022/11/04 03:10:15;;;;;;;2.93;2.63;;;5.30;99.90;;;;;;5103316;28;20209;-86
2022/11/04 03:12:53;;;;;;;3.67;2.87;;;5.40;99.90;;;;;;5106050;28;20294;-87
2022/11/04 03:15:32;;;;;;;3.00;2.23;;;5.40;99.90;;;;;;5103303;28;20300;-86
2022/11/04 03:18:18;;;;;;;2.53;2.30;;;5.30;99.90;;;;;;5109921;28;20241;-87
2022/11/04 03:20:51;;;;;;;3.13;2.40;;;5.40;99.90;;;;;;5100087;28;20206;-86
2022/11/04 03:23:23;;;;;;;4.73;2.43;;;5.30;99.90;;;;;;5086972;28;20662;-86
2022/11/04 03:25:58;;;;;;;3.20;2.57;;;5.30;99.90;;;;;;5096013;28;20225;-87
2022/11/04 03:28:40;;;;;;;3.80;2.77;;;5.30;99.90;;;;;;5110633;28;20289;-85
2022/11/04 03:31:18;;;;;;;3.80;2.90;;;5.30;99.90;;;;;;5108972;28;20612;-87
2022/11/04 03:33:54;;;;;;;3.17;2.87;;;5.30;99.90;;;;;;5119158;28;20214;-86
2022/11/04 03:36:27;;;;;;;3.73;2.67;;;5.30;99.90;;;;;;5107621;28;20233;-86
2022/11/04 03:38:59;;;;;;;4.23;2.73;;;5.30;99.90;;;;;;5121003;28;20214;-88
2022/11/04 03:41:36;;;;;;;3.00;2.70;;;5.40;99.90;;;;;;5135618;27;20329;-86
2022/11/04 03:44:07;;;;;;;4.67;2.70;;;5.40;99.90;;;;;;5123114;28;20223;-86
2022/11/04 03:46:39;;;;;;;2.50;2.13;;;5.30;99.90;;;;;;5116044;28;20220;-86
2022/11/04 03:49:15;;;;;;;5.40;3.20;;;5.40;99.90;;;;;;5114455;28;20208;-85
2022/11/04 03:51:46;;;;;;;3.47;3.00;;;5.50;99.90;;;;;;5094713;28;20285;-86
2022/11/04 03:54:18;;;;;;;4.47;2.80;;;5.40;99.90;;;;;;5094674;28;20226;-87
2022/11/04 03:57:20;;;;;;;3.20;2.37;;;5.50;99.90;;;;;;5094629;28;20305;-87
2022/11/04 04:00:09;;;;;;;4.27;2.90;;;5.50;99.90;;;;;;5083874;28;20205;-87
2022/11/04 04:03:00;;;;;;;4.27;2.50;;;5.50;99.90;;;;;;5100306;28;20309;-87
2022/11/04 04:05:39;;;;;;;4.77;2.43;;;5.60;99.90;;;;;;5105495;28;20279;-87
2022/11/04 04:08:20;;;;;;;2.73;2.43;;;5.50;99.90;;;;;;5112557;28;20337;-87
2022/11/04 04:11:04;;;;;;;4.47;2.87;;;5.50;99.90;;;;;;5105057;28;20662;-87
2022/11/04 04:13:45;;;;;;;3.53;2.53;;;5.60;99.90;;;;;;5077392;28;20195;-86
2022/11/04 04:16:19;;;;;;;3.70;2.60;;;5.60;99.90;;;;;;5099160;28;20211;-87
2022/11/04 04:18:58;;;;;;;2.50;2.00;;;5.50;99.90;;;;;;5105737;28;20218;-88
2022/11/04 04:21:37;;;;;;;2.70;1.90;;;5.60;99.90;;;;;;5104229;28;20313;-87
2022/11/04 04:29:49;;;;;;;3.07;1.97;;;5.60;99.90;;;;;;5090536;28;20237;-87
2022/11/04 04:32:23;;;;;;;1.47;1.10;;;5.50;99.90;;;;;;5093541;28;20251;-87
2022/11/04 04:35:40;;;;;;;1.77;1.47;;;5.50;99.90;;;;;;5094341;28;20199;-87
2022/11/04 04:37:50;;;;;;;2.67;1.60;;;5.50;99.90;;;;;;5093682;28;20203;-86
2022/11/04 04:46:07;;;;;;;1.63;1.53;;;5.50;99.90;;;;;;5114588;28;20570;-86
2022/11/04 04:48:38;;;;;;;2.87;1.77;;;5.50;99.90;;;;;;5114854;28;20286;-87
2022/11/04 04:51:10;;;;;;;1.97;1.73;;;5.40;99.90;;;;;;5096519;28;20279;-86
2022/11/04 04:53:43;;;;;;;1.83;1.50;;;5.40;99.90;;;;;;5112790;28;20210;-87
2022/11/04 04:56:14;;;;;;;2.33;1.77;;;5.40;99.90;;;;;;5114357;28;20208;-85
2022/11/04 04:58:46;;;;;;;2.17;1.93;;;5.30;99.90;;;;;;5114296;28;20220;-88
2022/11/04 05:01:18;;;;;;;2.70;1.93;;;5.50;99.90;;;;;;5128724;28;20206;-87
2022/11/04 05:03:49;;;;;;;1.67;1.57;;;5.50;99.90;;;;;;5122324;28;20738;-86
2022/11/04 05:06:21;;;;;;;2.60;2.07;;;5.50;99.90;;;;;;5115354;28;20206;-86
2022/11/04 05:08:55;;;;;;;3.30;2.47;;;5.40;99.90;;;;;;5100171;28;20730;-86
2022/11/04 05:11:27;;;;;;;3.33;2.63;;;5.40;99.90;;;;;;5111680;28;20572;-86
2022/11/04 05:13:58;;;;;;;3.43;2.60;;;5.40;99.90;;;;;;5109836;28;20220;-87
2022/11/04 05:16:30;;;;;;;6.80;3.77;;;5.40;99.90;;;;;;5109038;28;20633;-86
2022/11/04 05:19:06;;;;;;;4.67;3.37;;;5.50;99.90;;;;;;5111240;28;20217;-86
2022/11/04 05:21:38;;;;;;;2.80;2.33;;;5.50;99.90;;;;;;5114582;28;20206;-86
2022/11/04 05:24:13;;;;;;;5.13;3.03;;;5.50;99.90;;;;;;5101029;28;20286;-86
2022/11/04 05:26:44;;;;;;;3.73;2.20;;;5.50;99.90;;;;;;5101402;28;20284;-86
2022/11/04 05:29:16;;;;;;;2.30;2.10;;;5.50;99.90;;;;;;5111970;28;20200;-86
2022/11/04 05:31:48;;;;;;;3.27;2.53;;;5.50;99.90;;;;;;5093418;28;20239;-87
2022/11/04 05:34:20;;;;;;;5.77;3.30;;;5.40;99.90;;;;;;5104821;28;20252;-86
2022/11/04 05:36:52;;;;;;;5.20;2.83;;;5.40;99.90;;;;;;5107908;28;20230;-86
2022/11/04 05:39:25;;;;;;;2.80;2.03;;;5.40;99.90;;;;;;5105670;28;20210;-86
2022/11/04 05:41:57;;;;;;;2.97;2.37;;;5.30;99.90;;;;;;5098022;28;20722;-85
2022/11/04 05:44:28;;;;;;;9.97;3.93;;;5.40;99.90;;;;;;5093149;28;20199;-86
2022/11/04 05:46:59;;;;;;;3.90;2.10;;;5.50;99.90;;;;;;5092826;28;20237;-86
2022/11/04 05:49:31;;;;;;;6.27;2.03;;;5.50;99.90;;;;;;5093871;28;20252;-85
2022/11/04 05:52:02;;;;;;;3.10;1.60;;;5.50;99.90;;;;;;5091237;28;20201;-85
2022/11/04 05:54:37;;;;;;;4.30;1.93;;;5.50;99.90;;;;;;5097773;28;20191;-87
2022/11/04 05:57:11;;;;;;;4.00;1.73;;;5.50;99.90;;;;;;5101724;28;20334;-85
2022/11/04 05:59:42;;;;;;;2.20;1.80;;;5.60;99.90;;;;;;5093354;28;20203;-85
2022/11/04 06:02:16;;;;;;;1.80;1.70;;;5.60;99.90;;;;;;4747532;28;10000608;-86
2022/11/04 06:04:47;;;;;;;1.57;1.40;;;5.60;99.90;;;;;;5106205;28;20203;-85
2022/11/04 06:07:18;;;;;;;3.40;1.80;;;5.60;99.90;;;;;;5107580;28;20294;-86
2022/11/04 06:09:54;;;;;;;1.57;1.47;;;5.60;99.90;;;;;;5106279;28;20213;-86
2022/11/04 06:12:25;;;;;;;2.83;1.73;;;5.60;99.90;;;;;;5097262;28;20211;-86
2022/11/04 06:14:57;;;;;;;2.03;1.40;;;5.60;99.90;;;;;;5095002;28;20232;-86
2022/11/04 06:17:30;;;;;;;2.23;1.60;;;5.60;99.90;;;;;;5106968;28;20202;-86
2022/11/04 06:20:02;;;;;;;1.70;1.60;;;5.60;99.90;;;;;;5099719;28;20217;-87
2022/11/04 06:22:33;;;;;;;1.80;1.40;;;5.60;99.90;;;;;;5099342;28;20651;-86
2022/11/04 06:25:08;;;;;;;1.53;1.30;;;5.60;99.90;;;;;;5101615;28;20206;-86
2022/11/04 06:27:40;;;;;;;1.53;1.43;;;5.60;99.90;;;;;;5106692;28;20284;-87
2022/11/04 06:30:14;;;;;;;1.50;1.40;;;5.60;99.90;;;;;;5108907;28;20233;-86
2022/11/04 06:32:46;;;;;;;1.53;1.20;;;5.60;99.90;;;;;;5116076;28;20674;-86
2022/11/04 06:35:18;;;;;;;1.30;1.20;;;5.60;99.90;;;;;;5104392;28;20209;-87
2022/11/04 06:37:49;;;;;;;1.20;1.10;;;5.50;99.90;;;;;;5116928;28;20248;-88
2022/11/04 06:40:23;;;;;;;1.40;1.30;;;5.50;99.90;;;;;;5111977;27;20289;-88
2022/11/04 06:42:54;;;;;;;1.47;1.30;;;5.50;99.90;;;;;;5107935;28;20293;-87
2022/11/04 06:45:25;;;;;;;3.07;1.23;;;5.50;99.90;;;;;;5115767;28;20565;-85
2022/11/04 06:47:56;;;;;;;5.33;1.53;;;5.50;99.90;;;;;;5108869;28;20253;-87
2022/11/04 06:50:27;;;;;;;1.57;1.30;;;5.50;99.90;;;;;;5096111;28;20241;-87
2022/11/04 06:52:58;;;;;;;1.87;1.20;;;5.40;99.90;;;;;;5102319;28;20305;-86
2022/11/04 06:55:32;;;;;;;1.30;1.20;;;5.50;99.90;;;;;;5115937;28;20728;-87
2022/11/04 06:58:03;;;;;;;1.43;1.33;;;5.50;99.90;;;;;;5084883;28;20307;-87
2022/11/04 07:00:35;;;;;;;1.53;1.40;;;5.50;99.90;;;;;;5103818;28;20211;-87
2022/11/04 07:03:07;;;;;;;1.50;1.40;;;5.50;99.90;;;;;;5100587;28;20319;-87
2022/11/04 07:05:38;;;;;;;1.60;1.50;;;5.50;99.90;;;;;;5115782;28;20721;-86
2022/11/04 07:08:09;;;;;;;2.93;1.60;;;5.50;99.90;;;;;;5114972;28;20210;-86
2022/11/04 07:10:44;;;;;;;1.57;1.47;;;5.50;99.90;;;;;;5112695;28;20213;-86
2022/11/04 07:13:16;;;;;;;1.90;1.23;;;5.50;99.90;;;;;;5104985;28;20213;-87
2022/11/04 07:15:48;;;;;;;2.03;1.50;;;5.50;99.90;;;;;;5113676;28;20331;-87
2022/11/04 07:18:19;;;;;;;1.80;1.47;;;5.50;99.90;;;;;;5106516;28;20600;-87
2022/11/04 07:20:51;;;;;;;1.20;1.10;;;5.60;99.90;;;;;;5115976;28;20285;-87
2022/11/04 07:23:22;;;;;;;1.37;1.27;;;5.60;99.90;;;;;;4762527;28;10000053;-86
2022/11/04 07:26:02;;;;;;;1.87;1.40;;;5.60;99.90;;;;;;5115625;28;20214;-86
2022/11/04 07:28:33;;;;;;;1.43;1.33;;;5.60;99.90;;;;;;5115893;28;20300;-86
2022/11/04 07:31:06;;;;;;;2.20;1.53;;;5.70;99.90;;;;;;5100526;27;20389;-86
2022/11/04 07:33:37;;;;;;;1.67;1.57;;;5.70;99.90;;;;;;5110806;28;20202;-86
2022/11/04 07:36:12;;;;;;;1.60;1.20;;;5.70;99.90;;;;;;5117743;28;20416;-86
2022/11/04 07:38:44;;;;;;;1.53;1.43;;;5.70;99.90;;;;;;5125517;28;20304;-86
2022/11/04 07:41:19;;;;;;;1.50;1.30;;;5.80;99.90;;;;;;5126369;28;20601;-87
2022/11/04 07:43:52;;;;;;;1.30;1.20;;;5.80;99.90;;;;;;5106459;28;20257;-87
2022/11/04 07:46:23;;;;;;;2.17;1.40;;;5.80;99.90;;;;;;5121229;28;20297;-87
2022/11/04 07:48:59;;;;;;;1.40;1.30;;;5.80;99.90;;;;;;5115707;28;20238;-86
2022/11/04 07:51:31;;;;;;;2.07;1.37;;;5.80;99.90;;;;;;5113947;28;20636;-87
2022/11/04 07:54:03;;;;;;;1.73;1.60;;;5.80;99.90;;;;;;5094345;28;20289;-86
2022/11/04 07:56:36;;;;;;;2.23;1.60;;;5.80;99.90;;;;;;5078596;28;20679;-86
2022/11/04 07:59:08;;;;;;;3.07;1.70;;;5.80;99.90;;;;;;5097786;28;20326;-87
2022/11/04 08:01:40;;;;;;;1.30;1.20;;;5.80;99.90;;;;;;5105449;28;20262;-85
2022/11/04 08:04:11;;;;;;;1.40;1.00;;;5.70;99.90;;;;;;5089610;28;20230;-86
2022/11/04 08:06:42;;;;;;;1.23;0.80;;;5.70;99.90;;;;;;5096556;28;20203;-86
2022/11/04 08:09:13;;;;;;;2.13;0.90;;;5.60;99.90;;;;;;5113544;28;20241;-87
2022/11/04 08:11:47;;;;;;;4.83;1.57;;;5.50;99.90;;;;;;5114823;28;20202;-86
2022/11/04 08:14:18;;;;;;;2.00;1.17;;;5.50;99.90;;;;;;5116102;28;20230;-85
2022/11/04 08:16:52;;;;;;;1.13;0.93;;;5.50;99.90;;;;;;5118092;28;20304;-86
2022/11/04 08:19:27;;;;;;;1.03;0.97;;;5.60;99.90;;;;;;5114923;28;20209;-86
2022/11/04 08:21:58;;;;;;;1.10;1.00;;;5.60;99.90;;;;;;5116236;28;20292;-86
2022/11/04 08:24:30;;;;;;;2.10;1.13;;;5.60;99.90;;;;;;5097363;28;20422;-86
2022/11/04 08:27:03;;;;;;;0.93;0.93;;;5.60;99.90;;;;;;5115133;28;20206;-85
2022/11/04 08:29:35;;;;;;;1.40;1.10;;;5.60;99.90;;;;;;5115979;28;20206;-85
2022/11/04 08:32:09;;;;;;;0.80;0.80;;;5.60;99.90;;;;;;5113448;28;20286;-86
2022/11/04 08:34:40;;;;;;;0.73;0.73;;;5.60;99.90;;;;;;5115700;28;20285;-86
2022/11/04 08:37:14;;;;;;;2.53;1.10;;;5.60;99.90;;;;;;5093867;28;20568;-85
2022/11/04 08:39:45;;;;;;;1.73;1.03;;;5.60;99.90;;;;;;5106141;28;20226;-85
2022/11/04 08:42:22;;;;;;;1.20;1.10;;;5.60;99.90;;;;;;5113789;28;20287;-86
2022/11/04 08:44:54;;;;;;;1.97;1.20;;;5.70;99.90;;;;;;5114585;28;20346;-86
2022/11/04 08:47:25;;;;;;;4.00;1.10;;;5.70;99.90;;;;;;5114705;28;20290;-86
2022/11/04 08:49:57;;;;;;;1.47;0.80;;;5.70;99.90;;;;;;5114429;28;20292;-86
2022/11/04 08:52:28;;;;;;;1.30;1.20;;;5.70;99.90;;;;;;5113061;28;20293;-86
2022/11/04 08:54:59;;;;;;;3.40;1.07;;;5.60;99.90;;;;;;5114279;28;20206;-87
2022/11/04 08:57:33;;;;;;;1.03;1.00;;;5.60;99.90;;;;;;5114091;28;20529;-86
2022/11/04 09:00:05;;;;;;;3.40;1.23;;;5.60;99.90;;;;;;5114301;28;20239;-86
2022/11/04 09:02:36;;;;;;;2.40;1.30;;;5.60;99.90;;;;;;5112967;28;20206;-86
2022/11/04 09:05:09;;;;;;;1.03;1.00;;;5.60;99.90;;;;;;5113448;28;20280;-86
2022/11/04 09:07:40;;;;;;;1.00;1.00;;;5.70;99.90;;;;;;5113728;28;20730;-86
2022/11/04 09:10:13;;;;;;;1.63;1.03;;;5.70;99.90;;;;;;5114675;28;20289;-86
2022/11/04 09:12:46;;;;;;;1.40;1.30;;;5.80;99.90;;;;;;5113419;28;20238;-85
2022/11/04 09:15:18;;;;;;;2.10;1.30;;;5.70;99.90;;;;;;5114205;28;20629;-85
2022/11/04 09:17:49;;;;;;;1.20;1.10;;;5.70;99.90;;;;;;4760327;28;10000264;-85
2022/11/04 09:20:20;;;;;;;1.40;1.30;;;5.70;99.90;;;;;;5113303;28;20235;-86
2022/11/04 09:22:53;;;;;;;2.63;1.40;;;5.70;99.90;;;;;;5112421;28;20259;-85
2022/11/04 09:25:25;;;;;;;1.17;1.07;;;5.70;99.90;;;;;;5099179;28;20230;-84
2022/11/04 09:28:05;;;;;;;2.23;1.40;;;5.70;99.90;;;;;;5095064;28;20242;-85
2022/11/04 09:30:37;;;;;;;0.80;0.80;;;5.80;99.90;;;;;;5112978;28;20570;-86
2022/11/04 09:33:08;;;;;;;1.20;1.00;;;5.80;99.90;;;;;;5112582;28;20206;-85
2022/11/04 09:35:40;;;;;;;0.97;0.93;;;5.80;99.90;;;;;;5115986;28;20207;-86
2022/11/04 09:38:11;;;;;;;1.63;1.00;;;5.80;99.90;;;;;;5113449;28;20224;-86
2022/11/04 09:40:43;;;;;;;0.97;0.87;;;5.80;99.90;;;;;;5115987;28;20249;-87
2022/11/04 09:43:31;;;;;;;0.87;0.87;;;5.90;99.90;;;;;;5114617;28;20206;-86
2022/11/04 09:46:05;;;;;;;0.70;0.70;;;5.90;99.90;;;;;;5118966;28;20255;-86
2022/11/04 09:48:41;;;;;;;0.80;0.80;;;5.90;99.90;;;;;;5113966;28;20620;-86
2022/11/04 09:51:20;;;;;;;0.97;0.80;;;5.90;99.90;;;;;;5114512;28;20197;-86
2022/11/04 09:54:17;;;;;;;1.00;0.80;;;5.90;99.90;;;;;;5113174;28;20232;-86
2022/11/04 09:56:51;;;;;;;0.90;0.70;;;6.00;99.90;;;;;;5113555;28;20379;-86
2022/11/04 09:59:28;;;;;;;0.90;0.60;;;6.00;99.90;;;;;;5113750;28;20288;-86
2022/11/04 10:02:25;;;;;;;0.70;0.70;;;5.90;99.90;;;;;;5116730;28;20232;-85
2022/11/04 10:05:05;;;;;;;0.60;0.60;;;5.90;99.90;;;;;;5117727;28;20591;-86
2022/11/04 10:07:55;;;;;;;0.87;0.70;;;6.00;99.90;;;;;;5117559;28;20592;-86
2022/11/04 10:10:34;;;;;;;0.50;0.50;;;6.00;99.90;;;;;;5100418;28;20310;-86
2022/11/04 10:13:19;;;;;;;1.03;0.60;;;6.00;99.90;;;;;;5110038;28;20248;-87
2022/11/04 10:16:05;;;;;;;1.57;0.83;;;6.10;99.90;;;;;;5109397;28;20266;-84
2022/11/04 10:19:05;;;;;;;1.37;0.90;;;6.10;99.90;;;;;;5105830;28;20215;-85
2022/11/04 10:21:45;;;;;;;0.77;0.77;;;6.10;99.90;;;;;;5087053;28;20205;-85
2022/11/04 10:24:31;;;;;;;0.80;0.70;;;6.10;99.90;;;;;;5096556;28;20285;-85
2022/11/04 10:27:06;;;;;;;1.53;0.90;;;6.10;99.90;;;;;;5097137;28;20242;-86
2022/11/04 10:29:42;;;;;;;0.80;0.80;;;6.20;99.90;;;;;;5097156;28;20306;-86
2022/11/04 10:32:20;;;;;;;0.80;0.80;;;6.20;99.90;;;;;;5096026;28;20202;-85
2022/11/04 10:34:58;;;;;;;0.70;0.70;;;6.20;99.90;;;;;;5095797;28;20205;-86
2022/11/04 10:37:31;;;;;;;1.17;0.80;;;6.30;99.90;;;;;;5097010;28;20193;-86
2022/11/04 10:40:17;;;;;;;0.70;0.70;;;6.30;99.90;;;;;;5096975;28;20210;-84
2022/11/04 10:42:50;;;;;;;2.60;0.77;;;6.40;99.90;;;;;;5095628;28;20203;-86
2022/11/04 10:45:28;;;;;;;1.00;0.80;;;6.40;99.90;;;;;;5079479;28;20313;-86
2022/11/04 10:48:07;;;;;;;0.80;0.70;;;6.40;99.90;;;;;;5096702;28;20217;-87
2022/11/04 10:50:43;;;;;;;3.47;0.80;;;6.50;99.90;;;;;;5096088;28;20241;-86
2022/11/04 10:53:17;;;;;;;1.67;0.80;;;6.50;99.90;;;;;;5095693;28;20296;-86
2022/11/04 10:55:57;;;;;;;0.80;0.80;;;6.50;99.90;;;;;;5096208;28;20241;-87
2022/11/04 10:58:33;;;;;;;0.70;0.60;;;6.60;99.90;;;;;;5096171;28;20283;-86
2022/11/04 11:01:24;;;;;;;0.60;0.53;;;6.60;99.90;;;;;;5096207;28;20203;-86
2022/11/04 11:03:59;;;;;;;0.80;0.70;;;6.60;99.90;;;;;;5095029;28;20199;-86
2022/11/04 11:06:31;;;;;;;0.50;0.50;;;6.70;99.90;;;;;;5097930;28;20260;-85
2022/11/04 11:09:14;;;;;;;2.13;0.53;;;6.70;99.90;;;;;;5103990;28;20252;-86
2022/11/04 11:11:47;;;;;;;0.70;0.43;;;6.80;99.90;;;;;;5115356;28;20209;-86
2022/11/04 11:14:21;;;;;;;0.60;0.60;;;7.00;99.90;;;;;;5118489;28;20690;-87
2022/11/04 11:16:53;;;;;;;0.53;0.50;;;7.20;99.90;;;;;;5118768;28;20215;-86
2022/11/04 11:19:30;;;;;;;0.87;0.50;;;7.30;99.90;;;;;;5101231;28;20655;-87
2022/11/04 11:22:03;;;;;;;2.40;0.50;;;7.40;99.90;;;;;;5115819;28;20611;-87
2022/11/04 11:24:34;;;;;;;0.67;0.57;;;7.50;99.90;;;;;;5098730;28;20209;-86
2022/11/04 11:27:21;;;;;;;0.70;0.63;;;7.60;99.90;;;;;;5115770;28;20230;-88
2022/11/04 11:29:56;;;;;;;0.40;0.30;;;7.60;99.90;;;;;;5115891;28;20219;-85
2022/11/04 11:32:34;;;;;;;1.13;0.57;;;7.70;99.90;;;;;;5115428;28;20227;-86
2022/11/04 11:35:18;;;;;;;0.40;0.40;;;7.70;99.90;;;;;;5115520;28;20281;-86
2022/11/04 11:37:50;;;;;;;0.50;0.50;;;7.70;99.90;;;;;;5098406;28;20289;-86
2022/11/04 11:40:30;;;;;;;0.53;0.40;;;7.80;99.90;;;;;;5115224;28;20210;-86
2022/11/04 11:43:03;;;;;;;1.67;0.50;;;7.80;99.90;;;;;;5097516;28;20206;-86
2022/11/04 11:45:35;;;;;;;1.33;0.40;;;7.90;99.90;;;;;;5098254;28;20230;-86
2022/11/04 11:48:30;;;;;;;0.77;0.60;;;7.90;99.90;;;;;;5115384;28;20633;-87
2022/11/04 11:51:04;;;;;;;1.03;0.57;;;7.90;99.90;;;;;;5115166;28;20240;-87
2022/11/04 11:53:39;;;;;;;1.33;0.77;;;7.90;99.90;;;;;;5115178;28;20247;-85
2022/11/04 11:56:27;;;;;;;1.23;0.70;;;7.90;99.90;;;;;;5098823;28;20209;-86
2022/11/04 11:59:31;;;;;;;1.00;0.60;;;7.90;99.90;;;;;;5101141;28;20596;-86
2022/11/04 12:02:30;;;;;;;0.40;0.40;;;7.90;99.90;;;;;;5114763;28;20209;-86
2022/11/04 12:05:03;;;;;;;1.07;0.40;;;8.00;99.90;;;;;;5115634;28;20221;-85
2022/11/04 12:08:05;;;;;;;0.73;0.60;;;8.00;99.90;;;;;;5115366;28;20225;-86
2022/11/04 12:11:05;;;;;;;0.50;0.50;;;8.10;99.90;;;;;;5094942;28;20212;-87
2022/11/04 12:13:43;;;;;;;0.77;0.70;;;8.10;99.90;;;;;;5094354;28;20294;-86
2022/11/04 12:16:28;;;;;;;1.60;0.50;;;8.10;99.90;;;;;;5095915;28;20245;-87
2022/11/04 12:19:26;;;;;;;0.90;0.90;;;8.10;99.90;;;;;;5095507;28;20221;-85
2022/11/04 12:22:04;;;;;;;0.70;0.70;;;8.20;99.90;;;;;;5096923;28;20238;-87
2022/11/04 12:24:46;;;;;;;2.40;0.80;;;8.20;99.90;;;;;;5099349;28;20248;-87
2022/11/04 12:27:30;;;;;;;0.70;0.70;;;8.20;99.90;;;;;;5094625;28;20240;-87
2022/11/04 12:30:09;;;;;;;0.87;0.80;;;8.20;99.90;;;;;;5095614;28;20678;-86
2022/11/04 12:32:54;;;;;;;1.67;0.60;;;8.30;99.90;;;;;;5094290;28;20206;-85
2022/11/04 12:35:53;;;;;;;0.60;0.60;;;8.30;99.90;;;;;;5095918;28;20195;-86
2022/11/04 12:38:48;;;;;;;0.53;0.53;;;8.30;99.90;;;;;;5095458;28;20207;-87
2022/11/04 12:41:30;;;;;;;0.87;0.60;;;8.40;99.90;;;;;;5096478;28;20511;-87
2022/11/04 12:44:28;;;;;;;1.37;0.70;;;8.40;99.90;;;;;;5094724;28;20203;-87
2022/11/04 12:47:09;;;;;;;1.00;0.90;;;8.40;99.90;;;;;;5094283;28;20328;-86
2022/11/04 12:50:04;;;;;;;0.80;0.50;;;8.50;99.90;;;;;;5095139;28;20203;-86
2022/11/04 12:52:54;;;;;;;2.23;0.70;;;8.50;99.90;;;;;;5093677;28;20706;-86
2022/11/04 12:55:36;;;;;;;0.83;0.67;;;8.50;99.90;;;;;;5093994;28;20249;-87
2022/11/04 12:58:30;;;;;;;1.33;0.90;;;8.50;99.90;;;;;;5094299;28;20297;-87
2022/11/04 13:01:05;;;;;;;0.90;0.90;;;8.50;99.90;;;;;;5093733;28;20226;-86
2022/11/04 13:03:51;;;;;;;0.80;0.80;;;8.60;99.90;;;;;;5094086;28;20199;-86
2022/11/04 13:06:30;;;;;;;5.47;0.80;;;8.70;99.90;;;;;;5114736;28;20667;-86
2022/11/04 13:09:06;;;;;;;0.87;0.87;;;8.70;99.90;;;;;;5096883;28;20212;-86
2022/11/04 13:11:46;;;;;;;0.80;0.80;;;8.80;99.90;;;;;;5114154;28;20269;-87
2022/11/04 13:14:28;;;;;;;1.17;1.07;;;8.80;99.90;;;;;;5113207;28;20285;-86
2022/11/04 13:17:01;;;;;;;3.03;1.00;;;8.90;99.90;;;;;;5114176;28;20403;-87
2022/11/04 13:19:39;;;;;;;0.97;0.87;;;8.90;99.90;;;;;;5114076;28;20209;-86
2022/11/04 13:22:17;;;;;;;0.70;0.70;;;8.90;99.90;;;;;;5113441;28;20206;-86
2022/11/04 13:24:52;;;;;;;1.30;1.20;;;9.00;99.90;;;;;;5114258;28;20281;-86
2022/11/04 13:27:26;;;;;;;1.10;0.97;;;9.00;99.90;;;;;;5114285;28;20668;-87
2022/11/04 13:30:08;;;;;;;0.87;0.87;;;9.10;99.90;;;;;;5114258;28;20241;-86
2022/11/04 13:32:49;;;;;;;1.47;1.00;;;9.10;99.90;;;;;;5113371;28;20293;-86
2022/11/04 13:35:24;;;;;;;0.87;0.87;;;9.10;99.90;;;;;;5092964;28;20213;-86
2022/11/04 13:38:00;;;;;;;1.03;0.93;;;9.10;99.90;;;;;;5101960;28;20346;-87
2022/11/04 13:40:43;;;;;;;1.63;0.90;;;9.30;99.90;;;;;;5116321;28;20231;-86
2022/11/04 13:43:41;;;;;;;2.10;0.80;;;9.30;99.90;;;;;;5115835;28;20636;-87
2022/11/04 13:46:28;;;;;;;1.03;0.90;;;9.30;99.90;;;;;;5099035;28;20294;-86
2022/11/04 13:49:04;;;;;;;2.53;0.73;;;9.40;99.90;;;;;;5113860;28;20241;-87
2022/11/04 13:51:43;;;;;;;1.30;0.80;;;9.50;99.90;;;;;;5114464;28;20206;-86
2022/11/04 13:54:31;;;;;;;0.67;0.67;;;9.50;99.90;;;;;;5112653;28;20206;-87
2022/11/04 13:57:08;;;;;;;0.60;0.60;;;9.50;99.90;;;;;;5113582;28;20674;-86
2022/11/04 13:59:42;;;;;;;0.63;0.60;;;9.60;99.90;;;;;;5113053;28;20210;-87
2022/11/04 14:02:42;;;;;;;0.57;0.57;;;9.70;99.90;;;;;;5107447;28;20209;-87
2022/11/04 14:05:46;;;;;;;1.70;0.80;;;9.80;99.90;;;;;;5113621;28;20623;-87
2022/11/04 14:08:18;;;;;;;1.77;0.67;;;9.80;99.90;;;;;;5111868;28;20899;-86
2022/11/04 14:11:13;;;;;;;0.97;0.70;;;9.80;99.90;;;;;;5092797;28;20231;-86
2022/11/04 14:14:04;;;;;;;1.70;0.50;;;9.90;99.90;;;;;;5092340;28;20636;-86
2022/11/04 14:16:46;;;;;;;0.93;0.50;;;9.90;99.90;;;;;;5093362;28;20211;-88